sensor_id;sensor_type;location;lat;lon;timestamp;P1;P2;P0
71872;PMS5003;59745;52.924;-2.388;2022-09-09T00:02:54;25;24;
71872;PMS5003;59745;52.924;-2.388;2022-09-09T00:05:17;24;24;
71872;PMS5003;59745;52.924;-2.388;2022-09-09T00:07:41;25;24;
71872;PMS5003;59745;52.924;-2.388;2022-09-09T00:10:09;21;21;
71872;PMS5003;59745;52.924;-2.388;2022-09-09T00:12:32;20;19;
71872;PMS5003;59745;52.924;-2.388;2022-09-09T00:14:56;21;18;
71872;PMS5003;59745;52.924;-2.388;2022-09-09T00:17:24;24;21;
71872;PMS5003;59745;52.924;-2.388;2022-09-09T00:19:48;25;23;
71872;PMS5003;59745;52.924;-2.388;2022-09-09T00:22:15;20;19;
71872;PMS5003;59745;52.924;-2.388;2022-09-09T00:24:38;13;12;
71872;PMS5003;59745;52.924;-2.388;2022-09-09T00:27:04;25;24;
71872;PMS5003;59745;52.924;-2.388;2022-09-09T00:29:28;26;24;
71872;PMS5003;59745;52.924;-2.388;2022-09-09T00:31:53;35;30;
71872;PMS5003;59745;52.924;-2.388;2022-09-09T00:34:19;19;15;
71872;PMS5003;59745;52.924;-2.388;2022-09-09T00:36:44;33;32;
71872;PMS5003;59745;52.924;-2.388;2022-09-09T00:39:12;33;27;
71872;PMS5003;59745;52.924;-2.388;2022-09-09T00:41:38;24;24;
71872;PMS5003;59745;52.924;-2.388;2022-09-09T00:44:02;25;22;
71872;PMS5003;59745;52.924;-2.388;2022-09-09T00:46:32;28;27;
71872;PMS5003;59745;52.924;-2.388;2022-09-09T00:48:53;31;28;
71872;PMS5003;59745;52.924;-2.388;2022-09-09T00:51:17;27;24;
71872;PMS5003;59745;52.924;-2.388;2022-09-09T00:53:51;23;19;
71872;PMS5003;59745;52.924;-2.388;2022-09-09T00:56:09;28;24;
71872;PMS5003;59745;52.924;-2.388;2022-09-09T00:58:32;31;29;
71872;PMS5003;59745;52.924;-2.388;2022-09-09T01:00:59;26;23;
71872;PMS5003;59745;52.924;-2.388;2022-09-09T01:03:26;22;22;
71872;PMS5003;59745;52.924;-2.388;2022-09-09T01:05:51;25;22;
71872;PMS5003;59745;52.924;-2.388;2022-09-09T01:10:41;30;29;
71872;PMS5003;59745;52.924;-2.388;2022-09-09T01:13:05;27;25;
71872;PMS5003;59745;52.924;-2.388;2022-09-09T01:15:30;29;27;
71872;PMS5003;59745;52.924;-2.388;2022-09-09T01:17:58;30;26;
71872;PMS5003;59745;52.924;-2.388;2022-09-09T01:20:23;26;25;
71872;PMS5003;59745;52.924;-2.388;2022-09-09T01:22:49;32;31;
71872;PMS5003;59745;52.924;-2.388;2022-09-09T01:25:19;24;22;
71872;PMS5003;59745;52.924;-2.388;2022-09-09T01:27:37;25;24;
71872;PMS5003;59745;52.924;-2.388;2022-09-09T01:30:04;27;25;
71872;PMS5003;59745;52.924;-2.388;2022-09-09T01:32:38;17;17;
71872;PMS5003;59745;52.924;-2.388;2022-09-09T01:34:53;26;22;
71872;PMS5003;59745;52.924;-2.388;2022-09-09T01:37:18;16;15;
71872;PMS5003;59745;52.924;-2.388;2022-09-09T01:39:44;15;14;
71872;PMS5003;59745;52.924;-2.388;2022-09-09T01:42:10;17;15;
71872;PMS5003;59745;52.924;-2.388;2022-09-09T01:44:35;27;26;
71872;PMS5003;59745;52.924;-2.388;2022-09-09T01:47:00;22;21;
71872;PMS5003;59745;52.924;-2.388;2022-09-09T01:49:26;22;20;
71872;PMS5003;59745;52.924;-2.388;2022-09-09T01:51:52;28;26;
71872;PMS5003;59745;52.924;-2.388;2022-09-09T01:54:16;27;27;
71872;PMS5003;59745;52.924;-2.388;2022-09-09T01:56:44;17;16;
71872;PMS5003;59745;52.924;-2.388;2022-09-09T01:59:09;31;28;
71872;PMS5003;59745;52.924;-2.388;2022-09-09T02:01:36;25;25;
71872;PMS5003;59745;52.924;-2.388;2022-09-09T02:03:58;27;25;
71872;PMS5003;59745;52.924;-2.388;2022-09-09T02:06:26;20;18;
71872;PMS5003;59745;52.924;-2.388;2022-09-09T02:08:49;28;26;
71872;PMS5003;59745;52.924;-2.388;2022-09-09T02:11:15;20;20;
71872;PMS5003;59745;52.924;-2.388;2022-09-09T02:13:40;24;24;
71872;PMS5003;59745;52.924;-2.388;2022-09-09T02:16:06;23;23;
71872;PMS5003;59745;52.924;-2.388;2022-09-09T02:18:30;20;17;
71872;PMS5003;59745;52.924;-2.388;2022-09-09T02:20:55;17;17;
71872;PMS5003;59745;52.924;-2.388;2022-09-09T02:23:20;15;13;
71872;PMS5003;59745;52.924;-2.388;2022-09-09T02:25:45;17;16;
71872;PMS5003;59745;52.924;-2.388;2022-09-09T02:28:11;16;14;
71872;PMS5003;59745;52.924;-2.388;2022-09-09T02:30:37;9;8;
71872;PMS5003;59745;52.924;-2.388;2022-09-09T02:33:03;14;14;
71872;PMS5003;59745;52.924;-2.388;2022-09-09T02:35:27;19;18;
71872;PMS5003;59745;52.924;-2.388;2022-09-09T02:37:53;20;20;
71872;PMS5003;59745;52.924;-2.388;2022-09-09T02:40:18;18;17;
71872;PMS5003;59745;52.924;-2.388;2022-09-09T02:42:44;20;18;
71872;PMS5003;59745;52.924;-2.388;2022-09-09T02:45:09;20;19;
71872;PMS5003;59745;52.924;-2.388;2022-09-09T02:47:34;25;24;
71872;PMS5003;59745;52.924;-2.388;2022-09-09T02:50:03;22;21;
71872;PMS5003;59745;52.924;-2.388;2022-09-09T02:52:26;21;21;
71872;PMS5003;59745;52.924;-2.388;2022-09-09T02:54:50;25;25;
71872;PMS5003;59745;52.924;-2.388;2022-09-09T02:57:16;21;21;
71872;PMS5003;59745;52.924;-2.388;2022-09-09T02:59:40;22;22;
71872;PMS5003;59745;52.924;-2.388;2022-09-09T03:02:05;23;22;
71872;PMS5003;59745;52.924;-2.388;2022-09-09T03:04:31;31;26;
71872;PMS5003;59745;52.924;-2.388;2022-09-09T03:06:56;22;22;
71872;PMS5003;59745;52.924;-2.388;2022-09-09T03:09:21;26;22;
71872;PMS5003;59745;52.924;-2.388;2022-09-09T03:11:46;26;25;
71872;PMS5003;59745;52.924;-2.388;2022-09-09T03:14:12;23;23;
71872;PMS5003;59745;52.924;-2.388;2022-09-09T03:16:37;31;30;
71872;PMS5003;59745;52.924;-2.388;2022-09-09T03:19:02;27;21;
71872;PMS5003;59745;52.924;-2.388;2022-09-09T03:21:27;19;17;
71872;PMS5003;59745;52.924;-2.388;2022-09-09T03:23:58;19;17;
71872;PMS5003;59745;52.924;-2.388;2022-09-09T03:26:18;24;21;
71872;PMS5003;59745;52.924;-2.388;2022-09-09T03:28:44;19;19;
71872;PMS5003;59745;52.924;-2.388;2022-09-09T03:31:09;26;26;
71872;PMS5003;59745;52.924;-2.388;2022-09-09T03:33:34;21;20;
71872;PMS5003;59745;52.924;-2.388;2022-09-09T03:36:00;17;17;
71872;PMS5003;59745;52.924;-2.388;2022-09-09T03:38:26;21;19;
71872;PMS5003;59745;52.924;-2.388;2022-09-09T03:40:52;19;17;
71872;PMS5003;59745;52.924;-2.388;2022-09-09T03:43:17;24;21;
71872;PMS5003;59745;52.924;-2.388;2022-09-09T03:45:44;27;25;
71872;PMS5003;59745;52.924;-2.388;2022-09-09T03:48:07;21;20;
71872;PMS5003;59745;52.924;-2.388;2022-09-09T03:50:33;13;13;
71872;PMS5003;59745;52.924;-2.388;2022-09-09T03:52:58;18;18;
71872;PMS5003;59745;52.924;-2.388;2022-09-09T03:55:23;18;16;
71872;PMS5003;59745;52.924;-2.388;2022-09-09T03:57:49;21;21;
71872;PMS5003;59745;52.924;-2.388;2022-09-09T04:00:19;23;21;
71872;PMS5003;59745;52.924;-2.388;2022-09-09T04:02:40;19;18;
71872;PMS5003;59745;52.924;-2.388;2022-09-09T04:05:06;23;21;
71872;PMS5003;59745;52.924;-2.388;2022-09-09T04:07:31;18;17;
71872;PMS5003;59745;52.924;-2.388;2022-09-09T04:09:56;14;11;
71872;PMS5003;59745;52.924;-2.388;2022-09-09T04:12:21;18;17;
71872;PMS5003;59745;52.924;-2.388;2022-09-09T04:14:47;19;19;
71872;PMS5003;59745;52.924;-2.388;2022-09-09T04:17:12;16;15;
71872;PMS5003;59745;52.924;-2.388;2022-09-09T04:19:37;19;19;
71872;PMS5003;59745;52.924;-2.388;2022-09-09T04:22:03;21;20;
71872;PMS5003;59745;52.924;-2.388;2022-09-09T04:24:28;18;17;
71872;PMS5003;59745;52.924;-2.388;2022-09-09T04:26:54;19;18;
71872;PMS5003;59745;52.924;-2.388;2022-09-09T04:29:19;24;22;
71872;PMS5003;59745;52.924;-2.388;2022-09-09T04:31:44;26;26;
71872;PMS5003;59745;52.924;-2.388;2022-09-09T04:34:10;24;24;
71872;PMS5003;59745;52.924;-2.388;2022-09-09T04:36:36;18;17;
71872;PMS5003;59745;52.924;-2.388;2022-09-09T04:39:02;24;23;
71872;PMS5003;59745;52.924;-2.388;2022-09-09T04:41:27;22;21;
71872;PMS5003;59745;52.924;-2.388;2022-09-09T04:43:53;29;27;
71872;PMS5003;59745;52.924;-2.388;2022-09-09T04:46:18;17;17;
71872;PMS5003;59745;52.924;-2.388;2022-09-09T04:48:43;26;25;
71872;PMS5003;59745;52.924;-2.388;2022-09-09T04:51:09;25;23;
71872;PMS5003;59745;52.924;-2.388;2022-09-09T04:53:34;23;22;
71872;PMS5003;59745;52.924;-2.388;2022-09-09T04:56:01;22;21;
71872;PMS5003;59745;52.924;-2.388;2022-09-09T04:58:25;23;22;
71872;PMS5003;59745;52.924;-2.388;2022-09-09T05:00:50;29;28;
71872;PMS5003;59745;52.924;-2.388;2022-09-09T05:03:15;23;22;
71872;PMS5003;59745;52.924;-2.388;2022-09-09T05:05:41;25;24;
71872;PMS5003;59745;52.924;-2.388;2022-09-09T05:08:07;30;27;
71872;PMS5003;59745;52.924;-2.388;2022-09-09T05:10:31;23;22;
71872;PMS5003;59745;52.924;-2.388;2022-09-09T05:12:56;30;28;
71872;PMS5003;59745;52.924;-2.388;2022-09-09T05:15:22;29;28;
71872;PMS5003;59745;52.924;-2.388;2022-09-09T05:17:48;30;30;
71872;PMS5003;59745;52.924;-2.388;2022-09-09T05:20:13;27;27;
71872;PMS5003;59745;52.924;-2.388;2022-09-09T05:22:38;33;28;
71872;PMS5003;59745;52.924;-2.388;2022-09-09T05:25:03;26;25;
71872;PMS5003;59745;52.924;-2.388;2022-09-09T05:27:29;27;27;
71872;PMS5003;59745;52.924;-2.388;2022-09-09T05:29:54;28;27;
71872;PMS5003;59745;52.924;-2.388;2022-09-09T05:32:20;19;18;
71872;PMS5003;59745;52.924;-2.388;2022-09-09T05:34:45;22;21;
71872;PMS5003;59745;52.924;-2.388;2022-09-09T05:37:11;28;28;
71872;PMS5003;59745;52.924;-2.388;2022-09-09T05:39:36;22;20;
71872;PMS5003;59745;52.924;-2.388;2022-09-09T05:42:02;34;32;
71872;PMS5003;59745;52.924;-2.388;2022-09-09T05:44:27;27;25;
71872;PMS5003;59745;52.924;-2.388;2022-09-09T05:46:52;29;27;
71872;PMS5003;59745;52.924;-2.388;2022-09-09T05:49:18;28;27;
71872;PMS5003;59745;52.924;-2.388;2022-09-09T05:51:43;40;37;
71872;PMS5003;59745;52.924;-2.388;2022-09-09T05:54:09;32;30;
71872;PMS5003;59745;52.924;-2.388;2022-09-09T05:56:34;23;22;
71872;PMS5003;59745;52.924;-2.388;2022-09-09T05:59:00;28;28;
71872;PMS5003;59745;52.924;-2.388;2022-09-09T06:01:25;30;29;
71872;PMS5003;59745;52.924;-2.388;2022-09-09T06:03:50;27;27;
71872;PMS5003;59745;52.924;-2.388;2022-09-09T06:06:16;34;31;
71872;PMS5003;59745;52.924;-2.388;2022-09-09T06:08:41;28;25;
71872;PMS5003;59745;52.924;-2.388;2022-09-09T06:11:07;40;40;
71872;PMS5003;59745;52.924;-2.388;2022-09-09T06:13:32;35;33;
71872;PMS5003;59745;52.924;-2.388;2022-09-09T06:15:57;34;33;
71872;PMS5003;59745;52.924;-2.388;2022-09-09T06:18:23;38;33;
71872;PMS5003;59745;52.924;-2.388;2022-09-09T06:20:53;28;27;
71872;PMS5003;59745;52.924;-2.388;2022-09-09T06:23:14;41;38;
71872;PMS5003;59745;52.924;-2.388;2022-09-09T06:25:39;33;32;
71872;PMS5003;59745;52.924;-2.388;2022-09-09T06:28:05;40;37;
71872;PMS5003;59745;52.924;-2.388;2022-09-09T06:30:31;25;23;
71872;PMS5003;59745;52.924;-2.388;2022-09-09T06:32:56;36;35;
71872;PMS5003;59745;52.924;-2.388;2022-09-09T06:35:21;34;31;
71872;PMS5003;59745;52.924;-2.388;2022-09-09T06:37:47;35;34;
71872;PMS5003;59745;52.924;-2.388;2022-09-09T06:40:12;40;37;
71872;PMS5003;59745;52.924;-2.388;2022-09-09T06:42:37;33;32;
71872;PMS5003;59745;52.924;-2.388;2022-09-09T06:45:02;33;32;
71872;PMS5003;59745;52.924;-2.388;2022-09-09T06:47:27;32;31;
71872;PMS5003;59745;52.924;-2.388;2022-09-09T06:49:53;34;32;
71872;PMS5003;59745;52.924;-2.388;2022-09-09T06:52:18;36;34;
71872;PMS5003;59745;52.924;-2.388;2022-09-09T06:54:44;28;26;
71872;PMS5003;59745;52.924;-2.388;2022-09-09T06:57:09;30;28;
71872;PMS5003;59745;52.924;-2.388;2022-09-09T06:59:35;30;27;
71872;PMS5003;59745;52.924;-2.388;2022-09-09T07:02:00;28;28;
71872;PMS5003;59745;52.924;-2.388;2022-09-09T07:04:25;32;32;
71872;PMS5003;59745;52.924;-2.388;2022-09-09T07:06:51;28;27;
71872;PMS5003;59745;52.924;-2.388;2022-09-09T07:09:17;33;32;
71872;PMS5003;59745;52.924;-2.388;2022-09-09T07:11:42;39;37;
71872;PMS5003;59745;52.924;-2.388;2022-09-09T07:14:08;38;35;
71872;PMS5003;59745;52.924;-2.388;2022-09-09T07:16:33;35;33;
71872;PMS5003;59745;52.924;-2.388;2022-09-09T07:18:58;33;32;
71872;PMS5003;59745;52.924;-2.388;2022-09-09T07:21:24;38;34;
71872;PMS5003;59745;52.924;-2.388;2022-09-09T07:23:49;23;22;
71872;PMS5003;59745;52.924;-2.388;2022-09-09T07:26:15;29;28;
71872;PMS5003;59745;52.924;-2.388;2022-09-09T07:28:40;36;34;
71872;PMS5003;59745;52.924;-2.388;2022-09-09T07:31:05;34;33;
71872;PMS5003;59745;52.924;-2.388;2022-09-09T07:33:31;29;29;
71872;PMS5003;59745;52.924;-2.388;2022-09-09T07:36:01;36;29;
71872;PMS5003;59745;52.924;-2.388;2022-09-09T07:38:22;34;31;
71872;PMS5003;59745;52.924;-2.388;2022-09-09T07:40:47;25;23;
71872;PMS5003;59745;52.924;-2.388;2022-09-09T07:43:12;27;26;
71872;PMS5003;59745;52.924;-2.388;2022-09-09T07:45:37;36;31;
71872;PMS5003;59745;52.924;-2.388;2022-09-09T07:48:03;38;36;
71872;PMS5003;59745;52.924;-2.388;2022-09-09T07:50:28;30;27;
71872;PMS5003;59745;52.924;-2.388;2022-09-09T07:52:54;23;22;
71872;PMS5003;59745;52.924;-2.388;2022-09-09T07:55:19;31;30;
71872;PMS5003;59745;52.924;-2.388;2022-09-09T07:57:44;35;35;
71872;PMS5003;59745;52.924;-2.388;2022-09-09T08:00:10;32;29;
71872;PMS5003;59745;52.924;-2.388;2022-09-09T08:02:35;31;28;
71872;PMS5003;59745;52.924;-2.388;2022-09-09T08:05:01;34;32;
71872;PMS5003;59745;52.924;-2.388;2022-09-09T08:07:26;30;28;
71872;PMS5003;59745;52.924;-2.388;2022-09-09T08:09:52;35;33;
71872;PMS5003;59745;52.924;-2.388;2022-09-09T08:12:17;31;29;
71872;PMS5003;59745;52.924;-2.388;2022-09-09T08:14:42;36;35;
71872;PMS5003;59745;52.924;-2.388;2022-09-09T08:17:08;34;32;
71872;PMS5003;59745;52.924;-2.388;2022-09-09T08:19:33;28;26;
71872;PMS5003;59745;52.924;-2.388;2022-09-09T08:21:58;27;25;
71872;PMS5003;59745;52.924;-2.388;2022-09-09T08:24:24;29;28;
71872;PMS5003;59745;52.924;-2.388;2022-09-09T08:26:49;31;27;
71872;PMS5003;59745;52.924;-2.388;2022-09-09T08:29:15;36;33;
71872;PMS5003;59745;52.924;-2.388;2022-09-09T08:31:41;38;33;
71872;PMS5003;59745;52.924;-2.388;2022-09-09T08:34:06;32;28;
71872;PMS5003;59745;52.924;-2.388;2022-09-09T08:36:32;38;36;
71872;PMS5003;59745;52.924;-2.388;2022-09-09T08:38:57;34;33;
71872;PMS5003;59745;52.924;-2.388;2022-09-09T08:41:29;35;34;
71872;PMS5003;59745;52.924;-2.388;2022-09-09T08:43:47;31;29;
71872;PMS5003;59745;52.924;-2.388;2022-09-09T08:46:14;35;33;
71872;PMS5003;59745;52.924;-2.388;2022-09-09T08:48:41;34;30;
71872;PMS5003;59745;52.924;-2.388;2022-09-09T08:51:03;30;29;
71872;PMS5003;59745;52.924;-2.388;2022-09-09T08:53:29;28;27;
71872;PMS5003;59745;52.924;-2.388;2022-09-09T08:55:53;30;28;
71872;PMS5003;59745;52.924;-2.388;2022-09-09T08:58:19;31;28;
71872;PMS5003;59745;52.924;-2.388;2022-09-09T09:00:52;31;29;
71872;PMS5003;59745;52.924;-2.388;2022-09-09T09:03:13;31;29;
71872;PMS5003;59745;52.924;-2.388;2022-09-09T09:05:36;40;37;
71872;PMS5003;59745;52.924;-2.388;2022-09-09T09:08:03;27;26;
71872;PMS5003;59745;52.924;-2.388;2022-09-09T09:10:31;32;29;
71872;PMS5003;59745;52.924;-2.388;2022-09-09T09:12:52;26;25;
71872;PMS5003;59745;52.924;-2.388;2022-09-09T09:15:19;31;29;
71872;PMS5003;59745;52.924;-2.388;2022-09-09T09:17:43;32;30;
71872;PMS5003;59745;52.924;-2.388;2022-09-09T09:20:12;36;34;
71872;PMS5003;59745;52.924;-2.388;2022-09-09T09:22:36;37;35;
71872;PMS5003;59745;52.924;-2.388;2022-09-09T09:25:01;31;29;
71872;PMS5003;59745;52.924;-2.388;2022-09-09T09:27:30;35;33;
71872;PMS5003;59745;52.924;-2.388;2022-09-09T09:29:50;31;31;
71872;PMS5003;59745;52.924;-2.388;2022-09-09T09:32:18;33;32;
71872;PMS5003;59745;52.924;-2.388;2022-09-09T09:34:42;35;34;
71872;PMS5003;59745;52.924;-2.388;2022-09-09T09:37:11;35;33;
71872;PMS5003;59745;52.924;-2.388;2022-09-09T09:39:33;33;32;
71872;PMS5003;59745;52.924;-2.388;2022-09-09T09:41:57;38;38;
71872;PMS5003;59745;52.924;-2.388;2022-09-09T09:44:24;30;28;
71872;PMS5003;59745;52.924;-2.388;2022-09-09T09:46:48;30;30;
71872;PMS5003;59745;52.924;-2.388;2022-09-09T09:49:14;26;26;
71872;PMS5003;59745;52.924;-2.388;2022-09-09T09:51:39;30;29;
71872;PMS5003;59745;52.924;-2.388;2022-09-09T09:54:07;38;34;
71872;PMS5003;59745;52.924;-2.388;2022-09-09T09:56:30;26;24;
71872;PMS5003;59745;52.924;-2.388;2022-09-09T09:58:55;27;26;
71872;PMS5003;59745;52.924;-2.388;2022-09-09T10:01:21;27;26;
71872;PMS5003;59745;52.924;-2.388;2022-09-09T10:03:50;21;20;
71872;PMS5003;59745;52.924;-2.388;2022-09-09T10:06:12;35;31;
71872;PMS5003;59745;52.924;-2.388;2022-09-09T10:11:14;29;26;
71872;PMS5003;59745;52.924;-2.388;2022-09-09T10:13:31;25;24;
71872;PMS5003;59745;52.924;-2.388;2022-09-09T10:15:58;25;23;
71872;PMS5003;59745;52.924;-2.388;2022-09-09T10:18:24;29;27;
71872;PMS5003;59745;52.924;-2.388;2022-09-09T10:20:46;23;22;
71872;PMS5003;59745;52.924;-2.388;2022-09-09T10:23:15;27;24;
71872;PMS5003;59745;52.924;-2.388;2022-09-09T10:25:40;28;26;
71872;PMS5003;59745;52.924;-2.388;2022-09-09T10:28:09;28;26;
71872;PMS5003;59745;52.924;-2.388;2022-09-09T10:30:28;21;20;
71872;PMS5003;59745;52.924;-2.388;2022-09-09T10:32:54;24;24;
71872;PMS5003;59745;52.924;-2.388;2022-09-09T10:35:22;25;25;
71872;PMS5003;59745;52.924;-2.388;2022-09-09T10:37:51;24;24;
71872;PMS5003;59745;52.924;-2.388;2022-09-09T10:42:34;22;21;
71872;PMS5003;59745;52.924;-2.388;2022-09-09T10:45:04;28;28;
71872;PMS5003;59745;52.924;-2.388;2022-09-09T10:47:34;24;22;
71872;PMS5003;59745;52.924;-2.388;2022-09-09T10:49:57;25;25;
71872;PMS5003;59745;52.924;-2.388;2022-09-09T10:52:17;24;22;
71872;PMS5003;59745;52.924;-2.388;2022-09-09T10:54:45;27;26;
71872;PMS5003;59745;52.924;-2.388;2022-09-09T10:57:08;23;22;
71872;PMS5003;59745;52.924;-2.388;2022-09-09T10:59:33;18;18;
71872;PMS5003;59745;52.924;-2.388;2022-09-09T11:01:58;23;21;
71872;PMS5003;59745;52.924;-2.388;2022-09-09T11:04:23;48;39;
71872;PMS5003;59745;52.924;-2.388;2022-09-09T11:06:50;32;30;
71872;PMS5003;59745;52.924;-2.388;2022-09-09T11:09:15;16;16;
71872;PMS5003;59745;52.924;-2.388;2022-09-09T11:11:41;20;19;
71872;PMS5003;59745;52.924;-2.388;2022-09-09T11:14:08;25;21;
71872;PMS5003;59745;52.924;-2.388;2022-09-09T11:16:30;31;27;
71872;PMS5003;59745;52.924;-2.388;2022-09-09T11:18:56;28;27;
71872;PMS5003;59745;52.924;-2.388;2022-09-09T11:21:21;36;33;
71872;PMS5003;59745;52.924;-2.388;2022-09-09T11:23:48;22;21;
71872;PMS5003;59745;52.924;-2.388;2022-09-09T11:26:12;19;19;
71872;PMS5003;59745;52.924;-2.388;2022-09-09T11:28:40;21;21;
71872;PMS5003;59745;52.924;-2.388;2022-09-09T11:31:06;22;21;
71872;PMS5003;59745;52.924;-2.388;2022-09-09T11:33:32;20;19;
71872;PMS5003;59745;52.924;-2.388;2022-09-09T11:35:58;22;21;
71872;PMS5003;59745;52.924;-2.388;2022-09-09T11:38:19;24;22;
71872;PMS5003;59745;52.924;-2.388;2022-09-09T11:40:44;17;15;
71872;PMS5003;59745;52.924;-2.388;2022-09-09T11:43:10;24;23;
71872;PMS5003;59745;52.924;-2.388;2022-09-09T11:45:35;28;25;
71872;PMS5003;59745;52.924;-2.388;2022-09-09T11:48:01;30;30;
71872;PMS5003;59745;52.924;-2.388;2022-09-09T11:50:29;34;33;
71872;PMS5003;59745;52.924;-2.388;2022-09-09T11:53:02;26;23;
71872;PMS5003;59745;52.924;-2.388;2022-09-09T11:57:43;27;27;
71872;PMS5003;59745;52.924;-2.388;2022-09-09T12:02:34;28;26;
71872;PMS5003;59745;52.924;-2.388;2022-09-09T12:05:00;43;40;
71872;PMS5003;59745;52.924;-2.388;2022-09-09T12:07:28;48;44;
71872;PMS5003;59745;52.924;-2.388;2022-09-09T12:09:52;35;33;
71872;PMS5003;59745;52.924;-2.388;2022-09-09T12:12:23;156;123;
71872;PMS5003;59745;52.924;-2.388;2022-09-09T12:14:43;32;29;
71872;PMS5003;59745;52.924;-2.388;2022-09-09T12:17:09;32;31;
71872;PMS5003;59745;52.924;-2.388;2022-09-09T12:19:33;26;24;
71872;PMS5003;59745;52.924;-2.388;2022-09-09T12:22:00;29;27;
71872;PMS5003;59745;52.924;-2.388;2022-09-09T12:24:27;22;22;
71872;PMS5003;59745;52.924;-2.388;2022-09-09T12:26:52;35;33;
71872;PMS5003;59745;52.924;-2.388;2022-09-09T12:29:21;40;39;
71872;PMS5003;59745;52.924;-2.388;2022-09-09T12:31:42;34;34;
71872;PMS5003;59745;52.924;-2.388;2022-09-09T12:34:09;35;33;
71872;PMS5003;59745;52.924;-2.388;2022-09-09T12:36:32;39;38;
71872;PMS5003;59745;52.924;-2.388;2022-09-09T12:38:58;44;43;
71872;PMS5003;59745;52.924;-2.388;2022-09-09T12:41:23;36;34;
71872;PMS5003;59745;52.924;-2.388;2022-09-09T12:43:48;30;29;
71872;PMS5003;59745;52.924;-2.388;2022-09-09T12:46:16;27;27;
71872;PMS5003;59745;52.924;-2.388;2022-09-09T12:48:39;30;29;
71872;PMS5003;59745;52.924;-2.388;2022-09-09T12:51:05;33;29;
71872;PMS5003;59745;52.924;-2.388;2022-09-09T12:53:31;25;25;
71872;PMS5003;59745;52.924;-2.388;2022-09-09T12:55:56;34;31;
71872;PMS5003;59745;52.924;-2.388;2022-09-09T12:58:21;33;32;
71872;PMS5003;59745;52.924;-2.388;2022-09-09T13:00:50;36;36;
71872;PMS5003;59745;52.924;-2.388;2022-09-09T13:03:16;32;31;
71872;PMS5003;59745;52.924;-2.388;2022-09-09T13:05:38;27;26;
71872;PMS5003;59745;52.924;-2.388;2022-09-09T13:08:03;22;22;
71872;PMS5003;59745;52.924;-2.388;2022-09-09T13:10:28;25;24;
71872;PMS5003;59745;52.924;-2.388;2022-09-09T13:12:53;24;22;
71872;PMS5003;59745;52.924;-2.388;2022-09-09T13:15:20;28;28;
71872;PMS5003;59745;52.924;-2.388;2022-09-09T13:17:48;25;21;
71872;PMS5003;59745;52.924;-2.388;2022-09-09T13:22:36;21;19;
71872;PMS5003;59745;52.924;-2.388;2022-09-09T13:25:03;17;12;
71872;PMS5003;59745;52.924;-2.388;2022-09-09T13:27:28;18;16;
71872;PMS5003;59745;52.924;-2.388;2022-09-09T13:29:52;14;13;
71872;PMS5003;59745;52.924;-2.388;2022-09-09T13:32:18;10;10;
71872;PMS5003;59745;52.924;-2.388;2022-09-09T13:37:16;13;13;
71872;PMS5003;59745;52.924;-2.388;2022-09-09T13:39:36;14;13;
71872;PMS5003;59745;52.924;-2.388;2022-09-09T13:42:02;11;10;
71872;PMS5003;59745;52.924;-2.388;2022-09-09T13:44:28;13;13;
71872;PMS5003;59745;52.924;-2.388;2022-09-09T13:49:19;7;6;
71872;PMS5003;59745;52.924;-2.388;2022-09-09T13:51:44;10;10;
71872;PMS5003;59745;52.924;-2.388;2022-09-09T13:54:09;11;10;
71872;PMS5003;59745;52.924;-2.388;2022-09-09T13:56:34;8;8;
71872;PMS5003;59745;52.924;-2.388;2022-09-09T13:58:59;8;8;
71872;PMS5003;59745;52.924;-2.388;2022-09-09T14:01:24;10;9;
71872;PMS5003;59745;52.924;-2.388;2022-09-09T14:03:49;7;7;
71872;PMS5003;59745;52.924;-2.388;2022-09-09T14:06:14;8;7;
71872;PMS5003;59745;52.924;-2.388;2022-09-09T14:08:39;6;6;
71872;PMS5003;59745;52.924;-2.388;2022-09-09T14:11:04;11;11;
71872;PMS5003;59745;52.924;-2.388;2022-09-09T14:13:29;11;11;
71872;PMS5003;59745;52.924;-2.388;2022-09-09T14:15:54;11;11;
71872;PMS5003;59745;52.924;-2.388;2022-09-09T14:18:19;11;11;
71872;PMS5003;59745;52.924;-2.388;2022-09-09T14:20:44;9;8;
71872;PMS5003;59745;52.924;-2.388;2022-09-09T14:23:10;12;10;
71872;PMS5003;59745;52.924;-2.388;2022-09-09T14:25:34;11;11;
71872;PMS5003;59745;52.924;-2.388;2022-09-09T14:27:59;12;12;
71872;PMS5003;59745;52.924;-2.388;2022-09-09T14:30:24;12;11;
71872;PMS5003;59745;52.924;-2.388;2022-09-09T14:32:50;11;11;
71872;PMS5003;59745;52.924;-2.388;2022-09-09T14:35:15;12;11;
71872;PMS5003;59745;52.924;-2.388;2022-09-09T14:37:40;9;8;
71872;PMS5003;59745;52.924;-2.388;2022-09-09T14:40:06;9;9;
71872;PMS5003;59745;52.924;-2.388;2022-09-09T14:42:30;13;11;
71872;PMS5003;59745;52.924;-2.388;2022-09-09T14:44:55;9;7;
71872;PMS5003;59745;52.924;-2.388;2022-09-09T14:47:21;4;4;
71872;PMS5003;59745;52.924;-2.388;2022-09-09T14:49:46;8;8;
71872;PMS5003;59745;52.924;-2.388;2022-09-09T14:52:11;6;5;
71872;PMS5003;59745;52.924;-2.388;2022-09-09T14:54:36;8;8;
71872;PMS5003;59745;52.924;-2.388;2022-09-09T14:57:02;7;7;
71872;PMS5003;59745;52.924;-2.388;2022-09-09T14:59:27;9;9;
71872;PMS5003;59745;52.924;-2.388;2022-09-09T15:01:52;7;6;
71872;PMS5003;59745;52.924;-2.388;2022-09-09T15:04:17;8;8;
71872;PMS5003;59745;52.924;-2.388;2022-09-09T15:06:42;5;5;
71872;PMS5003;59745;52.924;-2.388;2022-09-09T15:09:08;6;6;
71872;PMS5003;59745;52.924;-2.388;2022-09-09T15:11:33;4;4;
71872;PMS5003;59745;52.924;-2.388;2022-09-09T15:13:57;7;7;
71872;PMS5003;59745;52.924;-2.388;2022-09-09T15:16:24;7;7;
71872;PMS5003;59745;52.924;-2.388;2022-09-09T15:18:50;4;4;
71872;PMS5003;59745;52.924;-2.388;2022-09-09T15:21:13;7;7;
71872;PMS5003;59745;52.924;-2.388;2022-09-09T15:23:38;10;9;
71872;PMS5003;59745;52.924;-2.388;2022-09-09T15:26:03;4;4;
71872;PMS5003;59745;52.924;-2.388;2022-09-09T15:28:28;7;6;
71872;PMS5003;59745;52.924;-2.388;2022-09-09T15:30:53;9;9;
71872;PMS5003;59745;52.924;-2.388;2022-09-09T15:33:18;5;5;
71872;PMS5003;59745;52.924;-2.388;2022-09-09T15:35:43;8;7;
71872;PMS5003;59745;52.924;-2.388;2022-09-09T15:38:08;8;7;
71872;PMS5003;59745;52.924;-2.388;2022-09-09T15:40:33;12;11;
71872;PMS5003;59745;52.924;-2.388;2022-09-09T15:42:58;4;4;
71872;PMS5003;59745;52.924;-2.388;2022-09-09T15:45:23;9;8;
71872;PMS5003;59745;52.924;-2.388;2022-09-09T15:47:49;7;7;
71872;PMS5003;59745;52.924;-2.388;2022-09-09T15:50:14;5;5;
71872;PMS5003;59745;52.924;-2.388;2022-09-09T15:52:40;11;8;
71872;PMS5003;59745;52.924;-2.388;2022-09-09T15:55:05;6;6;
71872;PMS5003;59745;52.924;-2.388;2022-09-09T15:57:31;9;9;
71872;PMS5003;59745;52.924;-2.388;2022-09-09T15:59:57;6;6;
71872;PMS5003;59745;52.924;-2.388;2022-09-09T16:02:21;7;7;
71872;PMS5003;59745;52.924;-2.388;2022-09-09T16:04:46;6;6;
71872;PMS5003;59745;52.924;-2.388;2022-09-09T16:07:11;7;6;
71872;PMS5003;59745;52.924;-2.388;2022-09-09T16:09:37;8;7;
71872;PMS5003;59745;52.924;-2.388;2022-09-09T16:12:03;7;7;